sensor_id;sensor_type;location;lat;lon;timestamp;P1;P2;P0
55754;PMS5003;41674;52.290;-1.474;2023-04-06T00:00:32;15;12;
55754;PMS5003;41674;52.290;-1.474;2023-04-06T00:03:01;14;13;
55754;PMS5003;41674;52.290;-1.474;2023-04-06T00:05:30;16;14;
55754;PMS5003;41674;52.290;-1.474;2023-04-06T00:08:00;19;19;
55754;PMS5003;41674;52.290;-1.474;2023-04-06T00:10:30;17;14;
55754;PMS5003;41674;52.290;-1.474;2023-04-06T00:13:04;18;17;
55754;PMS5003;41674;52.290;-1.474;2023-04-06T00:15:30;16;14;
55754;PMS5003;41674;52.290;-1.474;2023-04-06T00:17:58;20;16;
55754;PMS5003;41674;52.290;-1.474;2023-04-06T00:20:27;17;16;
55754;PMS5003;41674;52.290;-1.474;2023-04-06T00:22:57;11;10;
55754;PMS5003;41674;52.290;-1.474;2023-04-06T00:25:27;22;15;
55754;PMS5003;41674;52.290;-1.474;2023-04-06T00:27:56;11;10;
55754;PMS5003;41674;52.290;-1.474;2023-04-06T00:30:26;15;13;
55754;PMS5003;41674;52.290;-1.474;2023-04-06T00:32:55;14;14;
55754;PMS5003;41674;52.290;-1.474;2023-04-06T00:35:25;13;13;
55754;PMS5003;41674;52.290;-1.474;2023-04-06T00:37:54;12;12;
55754;PMS5003;41674;52.290;-1.474;2023-04-06T00:40:24;16;12;
55754;PMS5003;41674;52.290;-1.474;2023-04-06T00:42:53;16;15;
55754;PMS5003;41674;52.290;-1.474;2023-04-06T00:45:23;13;13;
55754;PMS5003;41674;52.290;-1.474;2023-04-06T00:47:52;17;16;
55754;PMS5003;41674;52.290;-1.474;2023-04-06T00:50:21;9;9;
55754;PMS5003;41674;52.290;-1.474;2023-04-06T00:52:51;12;12;
55754;PMS5003;41674;52.290;-1.474;2023-04-06T00:55:21;13;12;
55754;PMS5003;41674;52.290;-1.474;2023-04-06T00:57:57;14;11;
55754;PMS5003;41674;52.290;-1.474;2023-04-06T01:00:20;16;12;
55754;PMS5003;41674;52.290;-1.474;2023-04-06T01:02:49;13;13;
55754;PMS5003;41674;52.290;-1.474;2023-04-06T01:05:18;12;12;
55754;PMS5003;41674;52.290;-1.474;2023-04-06T01:07:48;14;12;
55754;PMS5003;41674;52.290;-1.474;2023-04-06T01:10:23;16;13;
55754;PMS5003;41674;52.290;-1.474;2023-04-06T01:12:47;13;12;
55754;PMS5003;41674;52.290;-1.474;2023-04-06T01:15:16;13;12;
55754;PMS5003;41674;52.290;-1.474;2023-04-06T01:17:46;17;17;
55754;PMS5003;41674;52.290;-1.474;2023-04-06T01:20:16;13;13;
55754;PMS5003;41674;52.290;-1.474;2023-04-06T01:22:45;14;11;
55754;PMS5003;41674;52.290;-1.474;2023-04-06T01:25:15;16;11;
55754;PMS5003;41674;52.290;-1.474;2023-04-06T01:27:44;15;13;
55754;PMS5003;41674;52.290;-1.474;2023-04-06T01:30:14;18;14;
55754;PMS5003;41674;52.290;-1.474;2023-04-06T01:32:43;12;12;
55754;PMS5003;41674;52.290;-1.474;2023-04-06T01:35:12;15;10;
55754;PMS5003;41674;52.290;-1.474;2023-04-06T01:37:41;13;13;
55754;PMS5003;41674;52.290;-1.474;2023-04-06T01:40:10;15;14;
55754;PMS5003;41674;52.290;-1.474;2023-04-06T01:42:40;15;13;
55754;PMS5003;41674;52.290;-1.474;2023-04-06T01:45:09;18;14;
55754;PMS5003;41674;52.290;-1.474;2023-04-06T01:47:38;17;15;
55754;PMS5003;41674;52.290;-1.474;2023-04-06T01:50:08;15;15;
55754;PMS5003;41674;52.290;-1.474;2023-04-06T01:52:37;13;13;
55754;PMS5003;41674;52.290;-1.474;2023-04-06T01:55:07;14;14;
55754;PMS5003;41674;52.290;-1.474;2023-04-06T01:57:37;19;16;
55754;PMS5003;41674;52.290;-1.474;2023-04-06T02:00:07;20;18;
55754;PMS5003;41674;52.290;-1.474;2023-04-06T02:02:36;20;18;
55754;PMS5003;41674;52.290;-1.474;2023-04-06T02:05:05;18;15;
55754;PMS5003;41674;52.290;-1.474;2023-04-06T02:07:34;23;22;
55754;PMS5003;41674;52.290;-1.474;2023-04-06T02:10:04;25;21;
55754;PMS5003;41674;52.290;-1.474;2023-04-06T02:12:33;25;22;
55754;PMS5003;41674;52.290;-1.474;2023-04-06T02:15:03;28;22;
55754;PMS5003;41674;52.290;-1.474;2023-04-06T02:17:32;28;25;
55754;PMS5003;41674;52.290;-1.474;2023-04-06T02:22:32;29;22;
55754;PMS5003;41674;52.290;-1.474;2023-04-06T02:25:02;28;25;
55754;PMS5003;41674;52.290;-1.474;2023-04-06T02:27:31;28;24;
55754;PMS5003;41674;52.290;-1.474;2023-04-06T02:30:00;22;19;
55754;PMS5003;41674;52.290;-1.474;2023-04-06T02:32:30;28;22;
55754;PMS5003;41674;52.290;-1.474;2023-04-06T02:35:00;30;28;
55754;PMS5003;41674;52.290;-1.474;2023-04-06T02:37:29;32;25;
55754;PMS5003;41674;52.290;-1.474;2023-04-06T02:39:59;27;26;
55754;PMS5003;41674;52.290;-1.474;2023-04-06T02:42:28;26;23;
55754;PMS5003;41674;52.290;-1.474;2023-04-06T02:44:57;26;25;
55754;PMS5003;41674;52.290;-1.474;2023-04-06T02:47:26;27;25;
55754;PMS5003;41674;52.290;-1.474;2023-04-06T02:49:55;25;20;
55754;PMS5003;41674;52.290;-1.474;2023-04-06T02:52:25;29;24;
55754;PMS5003;41674;52.290;-1.474;2023-04-06T02:54:53;28;22;
55754;PMS5003;41674;52.290;-1.474;2023-04-06T02:57:23;27;25;
55754;PMS5003;41674;52.290;-1.474;2023-04-06T02:59:52;29;23;
55754;PMS5003;41674;52.290;-1.474;2023-04-06T03:02:22;31;28;
55754;PMS5003;41674;52.290;-1.474;2023-04-06T03:04:51;29;25;
55754;PMS5003;41674;52.290;-1.474;2023-04-06T03:07:20;25;25;
55754;PMS5003;41674;52.290;-1.474;2023-04-06T03:09:50;31;24;
55754;PMS5003;41674;52.290;-1.474;2023-04-06T03:12:19;27;22;
55754;PMS5003;41674;52.290;-1.474;2023-04-06T03:14:48;23;21;
55754;PMS5003;41674;52.290;-1.474;2023-04-06T03:17:18;21;17;
55754;PMS5003;41674;52.290;-1.474;2023-04-06T03:19:47;28;26;
55754;PMS5003;41674;52.290;-1.474;2023-04-06T03:22:17;28;25;
55754;PMS5003;41674;52.290;-1.474;2023-04-06T03:24:47;26;22;
55754;PMS5003;41674;52.290;-1.474;2023-04-06T03:27:16;28;24;
55754;PMS5003;41674;52.290;-1.474;2023-04-06T03:29:45;27;24;
55754;PMS5003;41674;52.290;-1.474;2023-04-06T03:32:14;24;24;
55754;PMS5003;41674;52.290;-1.474;2023-04-06T03:34:44;25;22;
55754;PMS5003;41674;52.290;-1.474;2023-04-06T03:37:13;26;22;
55754;PMS5003;41674;52.290;-1.474;2023-04-06T03:39:42;25;20;
55754;PMS5003;41674;52.290;-1.474;2023-04-06T03:42:11;24;21;
55754;PMS5003;41674;52.290;-1.474;2023-04-06T03:44:40;24;22;
55754;PMS5003;41674;52.290;-1.474;2023-04-06T03:47:09;21;20;
55754;PMS5003;41674;52.290;-1.474;2023-04-06T03:49:39;24;21;
55754;PMS5003;41674;52.290;-1.474;2023-04-06T03:52:08;26;24;
55754;PMS5003;41674;52.290;-1.474;2023-04-06T03:54:38;27;22;
55754;PMS5003;41674;52.290;-1.474;2023-04-06T03:57:07;25;22;
55754;PMS5003;41674;52.290;-1.474;2023-04-06T03:59:36;19;17;
55754;PMS5003;41674;52.290;-1.474;2023-04-06T04:02:05;27;26;
55754;PMS5003;41674;52.290;-1.474;2023-04-06T04:04:35;25;24;
55754;PMS5003;41674;52.290;-1.474;2023-04-06T04:09:34;29;26;
55754;PMS5003;41674;52.290;-1.474;2023-04-06T04:12:04;20;18;
55754;PMS5003;41674;52.290;-1.474;2023-04-06T04:14:32;27;25;
55754;PMS5003;41674;52.290;-1.474;2023-04-06T04:17:02;30;26;
55754;PMS5003;41674;52.290;-1.474;2023-04-06T04:19:31;25;22;
55754;PMS5003;41674;52.290;-1.474;2023-04-06T04:22:00;20;20;
55754;PMS5003;41674;52.290;-1.474;2023-04-06T04:24:30;23;21;
55754;PMS5003;41674;52.290;-1.474;2023-04-06T04:26:59;23;19;
55754;PMS5003;41674;52.290;-1.474;2023-04-06T04:29:28;27;24;
55754;PMS5003;41674;52.290;-1.474;2023-04-06T04:31:58;26;22;
55754;PMS5003;41674;52.290;-1.474;2023-04-06T04:34:27;26;23;
55754;PMS5003;41674;52.290;-1.474;2023-04-06T04:36:56;23;20;
55754;PMS5003;41674;52.290;-1.474;2023-04-06T04:39:26;30;24;
55754;PMS5003;41674;52.290;-1.474;2023-04-06T04:41:55;22;20;
55754;PMS5003;41674;52.290;-1.474;2023-04-06T04:44:24;23;20;
55754;PMS5003;41674;52.290;-1.474;2023-04-06T04:46:53;23;20;
55754;PMS5003;41674;52.290;-1.474;2023-04-06T04:49:23;25;23;
55754;PMS5003;41674;52.290;-1.474;2023-04-06T04:51:52;27;24;
55754;PMS5003;41674;52.290;-1.474;2023-04-06T04:54:22;25;22;
55754;PMS5003;41674;52.290;-1.474;2023-04-06T04:56:51;23;21;
55754;PMS5003;41674;52.290;-1.474;2023-04-06T04:59:20;23;21;
55754;PMS5003;41674;52.290;-1.474;2023-04-06T05:01:49;20;18;
55754;PMS5003;41674;52.290;-1.474;2023-04-06T05:04:19;24;23;
55754;PMS5003;41674;52.290;-1.474;2023-04-06T05:06:48;25;20;
55754;PMS5003;41674;52.290;-1.474;2023-04-06T05:09:18;19;16;
55754;PMS5003;41674;52.290;-1.474;2023-04-06T05:11:47;21;20;
55754;PMS5003;41674;52.290;-1.474;2023-04-06T05:14:17;23;18;
55754;PMS5003;41674;52.290;-1.474;2023-04-06T05:16:46;21;18;
55754;PMS5003;41674;52.290;-1.474;2023-04-06T05:19:15;24;22;
55754;PMS5003;41674;52.290;-1.474;2023-04-06T05:21:44;20;16;
55754;PMS5003;41674;52.290;-1.474;2023-04-06T05:24:14;29;26;
55754;PMS5003;41674;52.290;-1.474;2023-04-06T05:26:43;25;21;
55754;PMS5003;41674;52.290;-1.474;2023-04-06T05:29:12;25;21;
55754;PMS5003;41674;52.290;-1.474;2023-04-06T05:31:42;26;24;
55754;PMS5003;41674;52.290;-1.474;2023-04-06T05:34:11;24;19;
55754;PMS5003;41674;52.290;-1.474;2023-04-06T05:36:41;30;22;
55754;PMS5003;41674;52.290;-1.474;2023-04-06T05:39:10;26;24;
55754;PMS5003;41674;52.290;-1.474;2023-04-06T05:41:39;25;21;
55754;PMS5003;41674;52.290;-1.474;2023-04-06T05:44:09;26;20;
55754;PMS5003;41674;52.290;-1.474;2023-04-06T05:46:39;21;21;
55754;PMS5003;41674;52.290;-1.474;2023-04-06T05:49:08;26;23;
55754;PMS5003;41674;52.290;-1.474;2023-04-06T05:51:37;26;24;
55754;PMS5003;41674;52.290;-1.474;2023-04-06T05:54:07;24;20;
55754;PMS5003;41674;52.290;-1.474;2023-04-06T05:56:36;22;20;
55754;PMS5003;41674;52.290;-1.474;2023-04-06T05:59:06;21;19;
55754;PMS5003;41674;52.290;-1.474;2023-04-06T06:01:35;23;22;
55754;PMS5003;41674;52.290;-1.474;2023-04-06T06:04:05;27;19;
55754;PMS5003;41674;52.290;-1.474;2023-04-06T06:06:34;22;18;
55754;PMS5003;41674;52.290;-1.474;2023-04-06T06:09:04;20;17;
55754;PMS5003;41674;52.290;-1.474;2023-04-06T06:11:33;25;23;
55754;PMS5003;41674;52.290;-1.474;2023-04-06T06:14:02;20;17;
55754;PMS5003;41674;52.290;-1.474;2023-04-06T06:16:31;19;17;
55754;PMS5003;41674;52.290;-1.474;2023-04-06T06:19:00;19;16;
55754;PMS5003;41674;52.290;-1.474;2023-04-06T06:21:30;17;16;
55754;PMS5003;41674;52.290;-1.474;2023-04-06T06:23:59;17;13;
55754;PMS5003;41674;52.290;-1.474;2023-04-06T06:26:28;19;15;
55754;PMS5003;41674;52.290;-1.474;2023-04-06T06:28:58;16;14;
55754;PMS5003;41674;52.290;-1.474;2023-04-06T06:31:27;18;14;
55754;PMS5003;41674;52.290;-1.474;2023-04-06T06:33:56;14;12;
55754;PMS5003;41674;52.290;-1.474;2023-04-06T06:36:26;14;12;
55754;PMS5003;41674;52.290;-1.474;2023-04-06T06:38:55;16;14;
55754;PMS5003;41674;52.290;-1.474;2023-04-06T06:41:25;14;11;
55754;PMS5003;41674;52.290;-1.474;2023-04-06T06:43:54;13;11;
55754;PMS5003;41674;52.290;-1.474;2023-04-06T06:46:29;17;14;
55754;PMS5003;41674;52.290;-1.474;2023-04-06T06:48:53;17;11;
55754;PMS5003;41674;52.290;-1.474;2023-04-06T06:51:23;11;11;
55754;PMS5003;41674;52.290;-1.474;2023-04-06T06:53:52;12;11;
55754;PMS5003;41674;52.290;-1.474;2023-04-06T06:56:21;11;10;
55754;PMS5003;41674;52.290;-1.474;2023-04-06T06:58:51;12;9;
55754;PMS5003;41674;52.290;-1.474;2023-04-06T07:01:20;8;7;
55754;PMS5003;41674;52.290;-1.474;2023-04-06T07:03:50;8;7;
55754;PMS5003;41674;52.290;-1.474;2023-04-06T07:06:19;8;7;
55754;PMS5003;41674;52.290;-1.474;2023-04-06T07:08:49;8;8;
55754;PMS5003;41674;52.290;-1.474;2023-04-06T07:11:18;5;5;
55754;PMS5003;41674;52.290;-1.474;2023-04-06T07:13:48;9;7;
55754;PMS5003;41674;52.290;-1.474;2023-04-06T07:16:17;7;6;
55754;PMS5003;41674;52.290;-1.474;2023-04-06T07:18:47;8;7;
55754;PMS5003;41674;52.290;-1.474;2023-04-06T07:21:17;7;6;
55754;PMS5003;41674;52.290;-1.474;2023-04-06T07:23:46;8;6;
55754;PMS5003;41674;52.290;-1.474;2023-04-06T07:26:16;6;6;
55754;PMS5003;41674;52.290;-1.474;2023-04-06T07:28:46;7;7;
55754;PMS5003;41674;52.290;-1.474;2023-04-06T07:31:15;9;7;
55754;PMS5003;41674;52.290;-1.474;2023-04-06T07:33:44;7;6;
55754;PMS5003;41674;52.290;-1.474;2023-04-06T07:36:14;6;5;
55754;PMS5003;41674;52.290;-1.474;2023-04-06T07:38:43;4;4;
55754;PMS5003;41674;52.290;-1.474;2023-04-06T07:41:13;8;7;
55754;PMS5003;41674;52.290;-1.474;2023-04-06T07:43:43;5;4;
55754;PMS5003;41674;52.290;-1.474;2023-04-06T07:46:12;6;5;
55754;PMS5003;41674;52.290;-1.474;2023-04-06T07:48:42;6;5;
55754;PMS5003;41674;52.290;-1.474;2023-04-06T07:53:41;4;4;
55754;PMS5003;41674;52.290;-1.474;2023-04-06T07:56:11;6;4;
55754;PMS5003;41674;52.290;-1.474;2023-04-06T07:58:40;4;3;
55754;PMS5003;41674;52.290;-1.474;2023-04-06T08:01:10;4;3;
55754;PMS5003;41674;52.290;-1.474;2023-04-06T08:03:40;4;4;
55754;PMS5003;41674;52.290;-1.474;2023-04-06T08:06:09;3;3;
55754;PMS5003;41674;52.290;-1.474;2023-04-06T08:08:39;2;2;
55754;PMS5003;41674;52.290;-1.474;2023-04-06T08:11:09;7;5;
55754;PMS5003;41674;52.290;-1.474;2023-04-06T08:13:38;4;4;
55754;PMS5003;41674;52.290;-1.474;2023-04-06T08:16:08;4;4;
55754;PMS5003;41674;52.290;-1.474;2023-04-06T08:18:37;4;4;
55754;PMS5003;41674;52.290;-1.474;2023-04-06T08:21:07;6;4;
55754;PMS5003;41674;52.290;-1.474;2023-04-06T08:23:37;6;5;
55754;PMS5003;41674;52.290;-1.474;2023-04-06T08:26:06;4;4;
55754;PMS5003;41674;52.290;-1.474;2023-04-06T08:28:36;5;5;
55754;PMS5003;41674;52.290;-1.474;2023-04-06T08:31:05;3;3;
55754;PMS5003;41674;52.290;-1.474;2023-04-06T08:33:35;6;5;
55754;PMS5003;41674;52.290;-1.474;2023-04-06T08:36:06;6;5;
55754;PMS5003;41674;52.290;-1.474;2023-04-06T08:38:35;5;5;
55754;PMS5003;41674;52.290;-1.474;2023-04-06T08:41:07;6;6;
55754;PMS5003;41674;52.290;-1.474;2023-04-06T08:43:34;5;5;
55754;PMS5003;41674;52.290;-1.474;2023-04-06T08:46:04;5;5;
55754;PMS5003;41674;52.290;-1.474;2023-04-06T08:48:33;6;6;
55754;PMS5003;41674;52.290;-1.474;2023-04-06T08:51:03;6;6;
55754;PMS5003;41674;52.290;-1.474;2023-04-06T08:53:32;8;8;
55754;PMS5003;41674;52.290;-1.474;2023-04-06T08:56:01;7;7;
55754;PMS5003;41674;52.290;-1.474;2023-04-06T08:58:32;7;6;
55754;PMS5003;41674;52.290;-1.474;2023-04-06T09:01:00;7;7;
55754;PMS5003;41674;52.290;-1.474;2023-04-06T09:03:30;5;5;
55754;PMS5003;41674;52.290;-1.474;2023-04-06T09:06:00;7;7;
55754;PMS5003;41674;52.290;-1.474;2023-04-06T09:08:29;7;7;
55754;PMS5003;41674;52.290;-1.474;2023-04-06T09:11:00;5;5;
55754;PMS5003;41674;52.290;-1.474;2023-04-06T09:13:29;7;6;
55754;PMS5003;41674;52.290;-1.474;2023-04-06T09:15:59;8;6;
55754;PMS5003;41674;52.290;-1.474;2023-04-06T09:18:28;7;6;
55754;PMS5003;41674;52.290;-1.474;2023-04-06T09:20:58;6;6;
55754;PMS5003;41674;52.290;-1.474;2023-04-06T09:23:27;10;7;
55754;PMS5003;41674;52.290;-1.474;2023-04-06T09:26:04;7;6;
55754;PMS5003;41674;52.290;-1.474;2023-04-06T09:28:26;9;8;
55754;PMS5003;41674;52.290;-1.474;2023-04-06T09:30:55;7;7;
55754;PMS5003;41674;52.290;-1.474;2023-04-06T09:33:25;8;7;
55754;PMS5003;41674;52.290;-1.474;2023-04-06T09:35:55;5;5;
55754;PMS5003;41674;52.290;-1.474;2023-04-06T09:38:24;9;5;
55754;PMS5003;41674;52.290;-1.474;2023-04-06T09:40:54;8;7;
55754;PMS5003;41674;52.290;-1.474;2023-04-06T09:43:24;9;9;
55754;PMS5003;41674;52.290;-1.474;2023-04-06T09:45:53;7;5;
55754;PMS5003;41674;52.290;-1.474;2023-04-06T09:48:22;6;5;
55754;PMS5003;41674;52.290;-1.474;2023-04-06T09:50:52;8;7;
55754;PMS5003;41674;52.290;-1.474;2023-04-06T09:53:21;9;8;
55754;PMS5003;41674;52.290;-1.474;2023-04-06T09:55:51;7;7;
55754;PMS5003;41674;52.290;-1.474;2023-04-06T09:58:20;6;6;
55754;PMS5003;41674;52.290;-1.474;2023-04-06T10:00:51;8;6;
55754;PMS5003;41674;52.290;-1.474;2023-04-06T10:03:20;8;7;
55754;PMS5003;41674;52.290;-1.474;2023-04-06T10:05:50;8;8;
55754;PMS5003;41674;52.290;-1.474;2023-04-06T10:08:19;8;8;
55754;PMS5003;41674;52.290;-1.474;2023-04-06T10:10:48;7;7;
55754;PMS5003;41674;52.290;-1.474;2023-04-06T10:13:18;5;5;
55754;PMS5003;41674;52.290;-1.474;2023-04-06T10:15:47;7;5;
55754;PMS5003;41674;52.290;-1.474;2023-04-06T10:20:48;11;7;
55754;PMS5003;41674;52.290;-1.474;2023-04-06T10:23:19;8;8;
55754;PMS5003;41674;52.290;-1.474;2023-04-06T10:25:51;8;7;
55754;PMS5003;41674;52.290;-1.474;2023-04-06T10:28:15;8;6;
55754;PMS5003;41674;52.290;-1.474;2023-04-06T10:30:45;8;8;
55754;PMS5003;41674;52.290;-1.474;2023-04-06T10:33:15;8;7;
55754;PMS5003;41674;52.290;-1.474;2023-04-06T10:35:44;3;3;
55754;PMS5003;41674;52.290;-1.474;2023-04-06T10:38:14;5;4;
55754;PMS5003;41674;52.290;-1.474;2023-04-06T10:40:43;3;3;
55754;PMS5003;41674;52.290;-1.474;2023-04-06T10:43:14;5;3;
55754;PMS5003;41674;52.290;-1.474;2023-04-06T10:45:42;3;3;
55754;PMS5003;41674;52.290;-1.474;2023-04-06T10:48:13;3;3;
55754;PMS5003;41674;52.290;-1.474;2023-04-06T10:50:43;4;4;
55754;PMS5003;41674;52.290;-1.474;2023-04-06T10:53:11;6;4;
55754;PMS5003;41674;52.290;-1.474;2023-04-06T10:55:41;6;3;
55754;PMS5003;41674;52.290;-1.474;2023-04-06T10:58:10;3;3;
55754;PMS5003;41674;52.290;-1.474;2023-04-06T11:00:43;3;2;
55754;PMS5003;41674;52.290;-1.474;2023-04-06T11:03:10;3;3;
55754;PMS5003;41674;52.290;-1.474;2023-04-06T11:05:43;4;4;
55754;PMS5003;41674;52.290;-1.474;2023-04-06T11:08:09;3;3;
55754;PMS5003;41674;52.290;-1.474;2023-04-06T11:10:38;5;5;
55754;PMS5003;41674;52.290;-1.474;2023-04-06T11:13:08;4;4;
55754;PMS5003;41674;52.290;-1.474;2023-04-06T11:15:37;4;3;
55754;PMS5003;41674;52.290;-1.474;2023-04-06T11:18:07;4;4;
55754;PMS5003;41674;52.290;-1.474;2023-04-06T11:20:37;5;4;
55754;PMS5003;41674;52.290;-1.474;2023-04-06T11:23:06;3;3;
55754;PMS5003;41674;52.290;-1.474;2023-04-06T11:25:36;5;4;
55754;PMS5003;41674;52.290;-1.474;2023-04-06T11:28:05;4;4;
55754;PMS5003;41674;52.290;-1.474;2023-04-06T11:30:35;5;5;
55754;PMS5003;41674;52.290;-1.474;2023-04-06T11:33:05;3;3;
55754;PMS5003;41674;52.290;-1.474;2023-04-06T11:35:34;3;2;
55754;PMS5003;41674;52.290;-1.474;2023-04-06T11:38:09;4;2;
55754;PMS5003;41674;52.290;-1.474;2023-04-06T11:40:33;3;3;
55754;PMS5003;41674;52.290;-1.474;2023-04-06T11:43:03;3;3;
55754;PMS5003;41674;52.290;-1.474;2023-04-06T11:48:02;4;4;
55754;PMS5003;41674;52.290;-1.474;2023-04-06T11:50:32;4;4;
55754;PMS5003;41674;52.290;-1.474;2023-04-06T11:53:01;7;4;
55754;PMS5003;41674;52.290;-1.474;2023-04-06T11:55:36;3;3;
55754;PMS5003;41674;52.290;-1.474;2023-04-06T11:58:00;2;2;
55754;PMS5003;41674;52.290;-1.474;2023-04-06T12:00:30;5;4;
55754;PMS5003;41674;52.290;-1.474;2023-04-06T12:03:00;2;1;
55754;PMS5003;41674;52.290;-1.474;2023-04-06T12:05:29;5;4;
55754;PMS5003;41674;52.290;-1.474;2023-04-06T12:07:58;2;2;
55754;PMS5003;41674;52.290;-1.474;2023-04-06T12:10:28;3;3;
55754;PMS5003;41674;52.290;-1.474;2023-04-06T12:12:58;3;3;
55754;PMS5003;41674;52.290;-1.474;2023-04-06T12:15:28;5;3;
55754;PMS5003;41674;52.290;-1.474;2023-04-06T12:17:57;5;3;
55754;PMS5003;41674;52.290;-1.474;2023-04-06T12:20:26;4;4;
55754;PMS5003;41674;52.290;-1.474;2023-04-06T12:22:56;4;3;
55754;PMS5003;41674;52.290;-1.474;2023-04-06T12:25:26;6;4;
55754;PMS5003;41674;52.290;-1.474;2023-04-06T12:27:55;5;5;
55754;PMS5003;41674;52.290;-1.474;2023-04-06T12:30:25;5;4;
55754;PMS5003;41674;52.290;-1.474;2023-04-06T12:32:54;6;6;
55754;PMS5003;41674;52.290;-1.474;2023-04-06T12:35:24;3;3;
55754;PMS5003;41674;52.290;-1.474;2023-04-06T12:37:54;2;2;
55754;PMS5003;41674;52.290;-1.474;2023-04-06T12:40:23;3;3;
55754;PMS5003;41674;52.290;-1.474;2023-04-06T12:42:53;2;2;
55754;PMS5003;41674;52.290;-1.474;2023-04-06T12:45:23;1;1;
55754;PMS5003;41674;52.290;-1.474;2023-04-06T12:47:52;2;2;
55754;PMS5003;41674;52.290;-1.474;2023-04-06T12:50:22;2;2;
55754;PMS5003;41674;52.290;-1.474;2023-04-06T12:52:51;4;3;
55754;PMS5003;41674;52.290;-1.474;2023-04-06T12:55:21;3;3;
55754;PMS5003;41674;52.290;-1.474;2023-04-06T12:57:50;5;5;
55754;PMS5003;41674;52.290;-1.474;2023-04-06T13:00:20;4;3;
55754;PMS5003;41674;52.290;-1.474;2023-04-06T13:02:49;6;6;
55754;PMS5003;41674;52.290;-1.474;2023-04-06T13:05:19;6;6;
55754;PMS5003;41674;52.290;-1.474;2023-04-06T13:07:48;3;3;
55754;PMS5003;41674;52.290;-1.474;2023-04-06T13:10:18;4;3;
55754;PMS5003;41674;52.290;-1.474;2023-04-06T13:12:47;2;1;
55754;PMS5003;41674;52.290;-1.474;2023-04-06T13:15:22;3;3;
55754;PMS5003;41674;52.290;-1.474;2023-04-06T13:17:47;1;1;
55754;PMS5003;41674;52.290;-1.474;2023-04-06T13:20:16;2;2;
55754;PMS5003;41674;52.290;-1.474;2023-04-06T13:22:46;2;2;
55754;PMS5003;41674;52.290;-1.474;2023-04-06T13:25:15;2;2;
55754;PMS5003;41674;52.290;-1.474;2023-04-06T13:27:45;2;2;
55754;PMS5003;41674;52.290;-1.474;2023-04-06T13:30:14;4;2;
55754;PMS5003;41674;52.290;-1.474;2023-04-06T13:32:44;5;3;
55754;PMS5003;41674;52.290;-1.474;2023-04-06T13:35:13;2;2;
55754;PMS5003;41674;52.290;-1.474;2023-04-06T13:37:43;3;2;
55754;PMS5003;41674;52.290;-1.474;2023-04-06T13:40:12;2;2;
55754;PMS5003;41674;52.290;-1.474;2023-04-06T13:42:42;2;2;
55754;PMS5003;41674;52.290;-1.474;2023-04-06T13:45:12;5;2;
55754;PMS5003;41674;52.290;-1.474;2023-04-06T13:47:41;2;1;
55754;PMS5003;41674;52.290;-1.474;2023-04-06T13:50:11;3;2;
55754;PMS5003;41674;52.290;-1.474;2023-04-06T13:52:40;5;3;
55754;PMS5003;41674;52.290;-1.474;2023-04-06T13:55:10;2;2;
55754;PMS5003;41674;52.290;-1.474;2023-04-06T13:57:40;3;2;
55754;PMS5003;41674;52.290;-1.474;2023-04-06T14:00:09;2;1;
55754;PMS5003;41674;52.290;-1.474;2023-04-06T14:02:39;1;1;
55754;PMS5003;41674;52.290;-1.474;2023-04-06T14:05:09;1;1;
55754;PMS5003;41674;52.290;-1.474;2023-04-06T14:07:38;1;1;
55754;PMS5003;41674;52.290;-1.474;2023-04-06T14:10:08;1;1;
55754;PMS5003;41674;52.290;-1.474;2023-04-06T14:12:37;2;2;
55754;PMS5003;41674;52.290;-1.474;2023-04-06T14:15:07;0;0;
55754;PMS5003;41674;52.290;-1.474;2023-04-06T14:17:36;1;0;
55754;PMS5003;41674;52.290;-1.474;2023-04-06T14:20:06;3;3;
55754;PMS5003;41674;52.290;-1.474;2023-04-06T14:22:35;1;1;
55754;PMS5003;41674;52.290;-1.474;2023-04-06T14:25:05;4;3;
55754;PMS5003;41674;52.290;-1.474;2023-04-06T14:27:34;2;2;
55754;PMS5003;41674;52.290;-1.474;2023-04-06T14:30:05;2;2;
55754;PMS5003;41674;52.290;-1.474;2023-04-06T14:32:34;2;2;
55754;PMS5003;41674;52.290;-1.474;2023-04-06T14:35:03;1;1;
55754;PMS5003;41674;52.290;-1.474;2023-04-06T14:37:33;3;3;
55754;PMS5003;41674;52.290;-1.474;2023-04-06T14:40:02;3;1;
55754;PMS5003;41674;52.290;-1.474;2023-04-06T14:42:32;1;1;
55754;PMS5003;41674;52.290;-1.474;2023-04-06T14:45:02;1;1;
55754;PMS5003;41674;52.290;-1.474;2023-04-06T14:47:31;3;3;
55754;PMS5003;41674;52.290;-1.474;2023-04-06T14:50:01;2;2;
55754;PMS5003;41674;52.290;-1.474;2023-04-06T14:52:30;2;2;
55754;PMS5003;41674;52.290;-1.474;2023-04-06T14:55:00;1;1;
55754;PMS5003;41674;52.290;-1.474;2023-04-06T14:57:30;1;1;
55754;PMS5003;41674;52.290;-1.474;2023-04-06T14:59:59;2;2;
55754;PMS5003;41674;52.290;-1.474;2023-04-06T15:02:29;1;1;
55754;PMS5003;41674;52.290;-1.474;2023-04-06T15:04:58;2;2;
55754;PMS5003;41674;52.290;-1.474;2023-04-06T15:07:28;2;2;
55754;PMS5003;41674;52.290;-1.474;2023-04-06T15:09:58;2;2;
55754;PMS5003;41674;52.290;-1.474;2023-04-06T15:12:27;1;1;
55754;PMS5003;41674;52.290;-1.474;2023-04-06T15:14:57;2;2;
55754;PMS5003;41674;52.290;-1.474;2023-04-06T15:17:26;2;1;
55754;PMS5003;41674;52.290;-1.474;2023-04-06T15:19:56;2;2;
55754;PMS5003;41674;52.290;-1.474;2023-04-06T15:22:26;1;1;
55754;PMS5003;41674;52.290;-1.474;2023-04-06T15:24:55;5;3;
55754;PMS5003;41674;52.290;-1.474;2023-04-06T15:27:25;1;1;
55754;PMS5003;41674;52.290;-1.474;2023-04-06T15:29:54;2;2;
55754;PMS5003;41674;52.290;-1.474;2023-04-06T15:32:24;4;3;
55754;PMS5003;41674;52.290;-1.474;2023-04-06T15:34:54;0;0;
55754;PMS5003;41674;52.290;-1.474;2023-04-06T15:37:23;1;1;
55754;PMS5003;41674;52.290;-1.474;2023-04-06T15:39:53;0;0;
55754;PMS5003;41674;52.290;-1.474;2023-04-06T15:42:22;0;0;
55754;PMS5003;41674;52.290;-1.474;2023-04-06T15:44:52;1;1;
55754;PMS5003;41674;52.290;-1.474;2023-04-06T15:47:22;3;1;
55754;PMS5003;41674;52.290;-1.474;2023-04-06T15:49:51;0;0;
55754;PMS5003;41674;52.290;-1.474;2023-04-06T15:52:21;1;1;
55754;PMS5003;41674;52.290;-1.474;2023-04-06T15:54:50;2;2;
55754;PMS5003;41674;52.290;-1.474;2023-04-06T15:57:20;2;0;
55754;PMS5003;41674;52.290;-1.474;2023-04-06T15:59:50;1;1;
55754;PMS5003;41674;52.290;-1.474;2023-04-06T16:02:19;0;0;
55754;PMS5003;41674;52.290;-1.474;2023-04-06T16:04:49;1;1;
55754;PMS5003;41674;52.290;-1.474;2023-04-06T16:07:18;0;0;
55754;PMS5003;41674;52.290;-1.474;2023-04-06T16:09:49;0;0;
55754;PMS5003;41674;52.290;-1.474;2023-04-06T16:12:17;1;0;
55754;PMS5003;41674;52.290;-1.474;2023-04-06T16:14:47;1;1;
55754;PMS5003;41674;52.290;-1.474;2023-04-06T16:17:16;2;2;
55754;PMS5003;41674;52.290;-1.474;2023-04-06T16:19:46;0;0;
55754;PMS5003;41674;52.290;-1.474;2023-04-06T16:22:16;0;0;
55754;PMS5003;41674;52.290;-1.474;2023-04-06T16:24:45;0;0;
55754;PMS5003;41674;52.290;-1.474;2023-04-06T16:27:15;2;2;
55754;PMS5003;41674;52.290;-1.474;2023-04-06T16:29:44;3;2;
55754;PMS5003;41674;52.290;-1.474;2023-04-06T16:32:14;1;1;
55754;PMS5003;41674;52.290;-1.474;2023-04-06T16:34:43;2;2;
55754;PMS5003;41674;52.290;-1.474;2023-04-06T16:37:13;1;1;
55754;PMS5003;41674;52.290;-1.474;2023-04-06T16:39:43;5;2;
55754;PMS5003;41674;52.290;-1.474;2023-04-06T16:42:12;1;1;
55754;PMS5003;41674;52.290;-1.474;2023-04-06T16:44:42;1;1;
55754;PMS5003;41674;52.290;-1.474;2023-04-06T16:47:11;5;3;